sensor_id;sensor_type;location;lat;lon;timestamp;P1;durP1;ratioP1;P2;durP2;ratioP2
73678;SDS011;61978;52.742;16.962;2022-12-11T00:00:49;19.60;;;15.48;;
73678;SDS011;61978;52.742;16.962;2022-12-11T00:03:17;22.67;;;16.20;;
73678;SDS011;61978;52.742;16.962;2022-12-11T00:05:44;21.17;;;15.68;;
73678;SDS011;61978;52.742;16.962;2022-12-11T00:08:12;23.32;;;18.95;;
73678;SDS011;61978;52.742;16.962;2022-12-11T00:10:39;23.65;;;18.65;;
73678;SDS011;61978;52.742;16.962;2022-12-11T00:13:14;20.77;;;15.80;;
73678;SDS011;61978;52.742;16.962;2022-12-11T00:15:41;22.37;;;16.05;;
73678;SDS011;61978;52.742;16.962;2022-12-11T00:18:11;19.90;;;15.63;;
73678;SDS011;61978;52.742;16.962;2022-12-11T00:20:37;19.62;;;14.68;;
73678;SDS011;61978;52.742;16.962;2022-12-11T00:23:04;19.00;;;14.93;;
73678;SDS011;61978;52.742;16.962;2022-12-11T00:25:32;19.92;;;15.98;;
73678;SDS011;61978;52.742;16.962;2022-12-11T00:27:59;20.95;;;16.05;;
73678;SDS011;61978;52.742;16.962;2022-12-11T00:30:26;19.80;;;16.25;;
73678;SDS011;61978;52.742;16.962;2022-12-11T00:32:54;18.92;;;15.25;;
73678;SDS011;61978;52.742;16.962;2022-12-11T00:35:20;18.57;;;15.05;;
73678;SDS011;61978;52.742;16.962;2022-12-11T00:37:47;20.85;;;16.37;;
73678;SDS011;61978;52.742;16.962;2022-12-11T00:40:13;18.80;;;14.30;;
73678;SDS011;61978;52.742;16.962;2022-12-11T00:42:41;17.65;;;13.30;;
73678;SDS011;61978;52.742;16.962;2022-12-11T00:45:08;19.57;;;15.35;;
73678;SDS011;61978;52.742;16.962;2022-12-11T00:47:38;19.40;;;14.83;;
73678;SDS011;61978;52.742;16.962;2022-12-11T00:50:05;21.30;;;16.90;;
73678;SDS011;61978;52.742;16.962;2022-12-11T00:52:33;27.40;;;20.70;;
73678;SDS011;61978;52.742;16.962;2022-12-11T00:55:00;25.43;;;20.17;;
73678;SDS011;61978;52.742;16.962;2022-12-11T00:57:27;20.60;;;16.55;;
73678;SDS011;61978;52.742;16.962;2022-12-11T00:59:54;19.82;;;15.35;;
73678;SDS011;61978;52.742;16.962;2022-12-11T01:02:21;22.58;;;16.65;;
73678;SDS011;61978;52.742;16.962;2022-12-11T01:04:47;20.70;;;16.67;;
73678;SDS011;61978;52.742;16.962;2022-12-11T01:07:14;22.05;;;17.73;;
73678;SDS011;61978;52.742;16.962;2022-12-11T01:09:41;18.10;;;14.73;;
73678;SDS011;61978;52.742;16.962;2022-12-11T01:12:26;19.85;;;15.55;;
73678;SDS011;61978;52.742;16.962;2022-12-11T01:14:53;17.55;;;14.00;;
73678;SDS011;61978;52.742;16.962;2022-12-11T01:17:19;20.68;;;15.58;;
73678;SDS011;61978;52.742;16.962;2022-12-11T01:19:46;21.65;;;17.45;;
73678;SDS011;61978;52.742;16.962;2022-12-11T01:22:13;23.38;;;17.85;;
73678;SDS011;61978;52.742;16.962;2022-12-11T01:24:42;18.35;;;13.95;;
73678;SDS011;61978;52.742;16.962;2022-12-11T01:27:09;17.12;;;13.62;;
73678;SDS011;61978;52.742;16.962;2022-12-11T01:29:35;20.02;;;15.68;;
73678;SDS011;61978;52.742;16.962;2022-12-11T01:32:03;20.17;;;16.48;;
73678;SDS011;61978;52.742;16.962;2022-12-11T01:34:31;20.88;;;16.32;;
73678;SDS011;61978;52.742;16.962;2022-12-11T01:36:58;20.57;;;16.17;;
73678;SDS011;61978;52.742;16.962;2022-12-11T01:39:25;18.35;;;13.22;;
73678;SDS011;61978;52.742;16.962;2022-12-11T01:41:56;16.00;;;12.58;;
73678;SDS011;61978;52.742;16.962;2022-12-11T01:46:55;18.67;;;14.50;;
73678;SDS011;61978;52.742;16.962;2022-12-11T01:49:23;18.05;;;13.43;;
73678;SDS011;61978;52.742;16.962;2022-12-11T01:51:57;19.52;;;14.35;;
73678;SDS011;61978;52.742;16.962;2022-12-11T01:54:23;18.50;;;14.83;;
73678;SDS011;61978;52.742;16.962;2022-12-11T01:56:53;18.52;;;15.32;;
73678;SDS011;61978;52.742;16.962;2022-12-11T01:59:22;17.35;;;13.28;;
73678;SDS011;61978;52.742;16.962;2022-12-11T02:01:57;16.12;;;12.80;;
73678;SDS011;61978;52.742;16.962;2022-12-11T02:04:34;18.12;;;14.28;;
73678;SDS011;61978;52.742;16.962;2022-12-11T02:07:03;14.63;;;11.53;;
73678;SDS011;61978;52.742;16.962;2022-12-11T02:09:32;17.95;;;13.45;;
73678;SDS011;61978;52.742;16.962;2022-12-11T02:12:14;18.32;;;13.98;;
73678;SDS011;61978;52.742;16.962;2022-12-11T02:14:58;19.45;;;14.95;;
73678;SDS011;61978;52.742;16.962;2022-12-11T02:17:43;18.05;;;14.13;;
73678;SDS011;61978;52.742;16.962;2022-12-11T02:20:16;18.70;;;13.55;;
73678;SDS011;61978;52.742;16.962;2022-12-11T02:22:52;14.38;;;11.75;;
73678;SDS011;61978;52.742;16.962;2022-12-11T02:30:41;11.88;;;9.95;;
73678;SDS011;61978;52.742;16.962;2022-12-11T02:33:13;16.62;;;10.80;;
73678;SDS011;61978;52.742;16.962;2022-12-11T02:35:42;15.00;;;10.93;;
73678;SDS011;61978;52.742;16.962;2022-12-11T02:38:17;16.48;;;11.48;;
73678;SDS011;61978;52.742;16.962;2022-12-11T02:40:47;14.53;;;12.23;;
73678;SDS011;61978;52.742;16.962;2022-12-11T02:43:18;15.20;;;11.80;;
73678;SDS011;61978;52.742;16.962;2022-12-11T02:45:47;16.85;;;12.45;;
73678;SDS011;61978;52.742;16.962;2022-12-11T02:48:16;14.20;;;12.03;;
73678;SDS011;61978;52.742;16.962;2022-12-11T02:50:46;14.90;;;11.78;;
73678;SDS011;61978;52.742;16.962;2022-12-11T02:53:16;16.65;;;12.33;;
73678;SDS011;61978;52.742;16.962;2022-12-11T02:55:45;14.05;;;11.25;;
73678;SDS011;61978;52.742;16.962;2022-12-11T02:58:18;13.03;;;10.75;;
73678;SDS011;61978;52.742;16.962;2022-12-11T03:00:56;10.98;;;9.85;;
73678;SDS011;61978;52.742;16.962;2022-12-11T03:03:25;16.97;;;12.35;;
73678;SDS011;61978;52.742;16.962;2022-12-11T03:05:56;22.35;;;15.48;;
73678;SDS011;61978;52.742;16.962;2022-12-11T03:08:23;13.68;;;10.80;;
73678;SDS011;61978;52.742;16.962;2022-12-11T03:10:50;10.70;;;9.03;;
73678;SDS011;61978;52.742;16.962;2022-12-11T03:13:18;10.88;;;8.50;;
73678;SDS011;61978;52.742;16.962;2022-12-11T03:18:38;13.45;;;10.48;;
73678;SDS011;61978;52.742;16.962;2022-12-11T03:21:13;14.50;;;11.15;;
73678;SDS011;61978;52.742;16.962;2022-12-11T04:48:41;15.53;;;12.97;;
73678;SDS011;61978;52.742;16.962;2022-12-11T04:51:08;15.48;;;12.78;;
73678;SDS011;61978;52.742;16.962;2022-12-11T04:53:36;17.25;;;12.45;;
73678;SDS011;61978;52.742;16.962;2022-12-11T04:56:06;18.07;;;14.03;;
73678;SDS011;61978;52.742;16.962;2022-12-11T04:58:35;17.92;;;13.20;;
73678;SDS011;61978;52.742;16.962;2022-12-11T05:01:08;15.40;;;12.13;;
73678;SDS011;61978;52.742;16.962;2022-12-11T05:03:36;14.87;;;12.75;;
73678;SDS011;61978;52.742;16.962;2022-12-11T05:06:03;14.38;;;12.85;;
73678;SDS011;61978;52.742;16.962;2022-12-11T05:08:35;15.53;;;13.03;;
73678;SDS011;61978;52.742;16.962;2022-12-11T05:11:04;14.28;;;12.37;;
73678;SDS011;61978;52.742;16.962;2022-12-11T05:13:36;18.03;;;13.90;;
73678;SDS011;61978;52.742;16.962;2022-12-11T05:16:05;16.40;;;13.18;;
73678;SDS011;61978;52.742;16.962;2022-12-11T05:18:34;17.37;;;13.88;;
73678;SDS011;61978;52.742;16.962;2022-12-11T05:21:05;18.65;;;14.15;;
73678;SDS011;61978;52.742;16.962;2022-12-11T05:23:33;19.35;;;14.33;;
73678;SDS011;61978;52.742;16.962;2022-12-11T05:26:02;17.20;;;14.00;;
73678;SDS011;61978;52.742;16.962;2022-12-11T05:28:36;17.52;;;14.13;;
73678;SDS011;61978;52.742;16.962;2022-12-11T05:31:06;16.57;;;14.75;;
73678;SDS011;61978;52.742;16.962;2022-12-11T06:45:15;15.27;;;12.87;;
73678;SDS011;61978;52.742;16.962;2022-12-11T06:47:41;16.37;;;12.68;;
73678;SDS011;61978;52.742;16.962;2022-12-11T06:50:08;18.17;;;15.50;;
73678;SDS011;61978;52.742;16.962;2022-12-11T06:52:35;16.77;;;14.03;;
73678;SDS011;61978;52.742;16.962;2022-12-11T06:55:01;14.85;;;12.93;;
73678;SDS011;61978;52.742;16.962;2022-12-11T06:57:28;16.02;;;14.03;;
73678;SDS011;61978;52.742;16.962;2022-12-11T06:59:55;18.37;;;14.70;;
73678;SDS011;61978;52.742;16.962;2022-12-11T07:02:22;18.40;;;14.25;;
73678;SDS011;61978;52.742;16.962;2022-12-11T07:04:49;17.50;;;13.50;;
73678;SDS011;61978;52.742;16.962;2022-12-11T07:07:15;50.75;;;34.88;;
73678;SDS011;61978;52.742;16.962;2022-12-11T07:09:44;25.10;;;20.10;;
73678;SDS011;61978;52.742;16.962;2022-12-11T07:12:10;33.58;;;28.38;;
73678;SDS011;61978;52.742;16.962;2022-12-11T07:14:37;19.48;;;15.48;;
73678;SDS011;61978;52.742;16.962;2022-12-11T07:17:03;17.12;;;14.65;;
73678;SDS011;61978;52.742;16.962;2022-12-11T07:19:30;17.00;;;13.15;;
73678;SDS011;61978;52.742;16.962;2022-12-11T07:21:57;19.32;;;14.95;;
73678;SDS011;61978;52.742;16.962;2022-12-11T07:24:23;23.10;;;16.85;;
73678;SDS011;61978;52.742;16.962;2022-12-11T07:26:50;20.70;;;17.12;;
73678;SDS011;61978;52.742;16.962;2022-12-11T07:29:17;41.05;;;30.32;;
73678;SDS011;61978;52.742;16.962;2022-12-11T07:31:45;24.25;;;19.48;;
73678;SDS011;61978;52.742;16.962;2022-12-11T07:34:11;22.50;;;18.40;;
73678;SDS011;61978;52.742;16.962;2022-12-11T07:36:39;25.77;;;19.73;;
73678;SDS011;61978;52.742;16.962;2022-12-11T07:39:06;32.73;;;23.50;;
73678;SDS011;61978;52.742;16.962;2022-12-11T07:41:33;53.20;;;37.05;;
73678;SDS011;61978;52.742;16.962;2022-12-11T07:44:01;21.05;;;17.60;;
73678;SDS011;61978;52.742;16.962;2022-12-11T07:46:29;73.05;;;44.08;;
73678;SDS011;61978;52.742;16.962;2022-12-11T07:48:58;36.85;;;27.93;;
73678;SDS011;61978;52.742;16.962;2022-12-11T07:51:27;29.98;;;24.40;;
73678;SDS011;61978;52.742;16.962;2022-12-11T07:53:59;16.77;;;10.25;;
73678;SDS011;61978;52.742;16.962;2022-12-11T07:56:29;26.70;;;14.38;;
73678;SDS011;61978;52.742;16.962;2022-12-11T07:59:00;22.62;;;13.65;;
73678;SDS011;61978;52.742;16.962;2022-12-11T08:01:28;22.80;;;13.22;;
73678;SDS011;61978;52.742;16.962;2022-12-11T08:03:57;20.92;;;12.05;;
73678;SDS011;61978;52.742;16.962;2022-12-11T08:06:25;18.67;;;11.22;;
73678;SDS011;61978;52.742;16.962;2022-12-11T08:08:55;28.17;;;14.95;;
73678;SDS011;61978;52.742;16.962;2022-12-11T08:11:23;28.75;;;17.75;;
73678;SDS011;61978;52.742;16.962;2022-12-11T08:13:51;21.75;;;14.23;;
73678;SDS011;61978;52.742;16.962;2022-12-11T08:16:18;15.13;;;9.95;;
73678;SDS011;61978;52.742;16.962;2022-12-11T08:18:45;18.32;;;13.03;;
73678;SDS011;61978;52.742;16.962;2022-12-11T08:21:16;19.15;;;13.13;;
73678;SDS011;61978;52.742;16.962;2022-12-11T08:23:47;20.85;;;14.00;;
73678;SDS011;61978;52.742;16.962;2022-12-11T08:26:16;23.75;;;12.88;;
73678;SDS011;61978;52.742;16.962;2022-12-11T08:28:47;30.57;;;23.40;;
73678;SDS011;61978;52.742;16.962;2022-12-11T08:31:13;21.90;;;17.15;;
73678;SDS011;61978;52.742;16.962;2022-12-11T08:33:42;21.70;;;17.32;;
73678;SDS011;61978;52.742;16.962;2022-12-11T08:36:10;29.27;;;21.52;;
73678;SDS011;61978;52.742;16.962;2022-12-11T08:38:38;23.12;;;18.17;;
73678;SDS011;61978;52.742;16.962;2022-12-11T08:41:12;22.82;;;19.12;;
73678;SDS011;61978;52.742;16.962;2022-12-11T08:43:48;28.00;;;18.50;;
73678;SDS011;61978;52.742;16.962;2022-12-11T08:46:20;21.27;;;14.10;;
73678;SDS011;61978;52.742;16.962;2022-12-11T08:48:49;27.05;;;19.50;;
73678;SDS011;61978;52.742;16.962;2022-12-11T08:51:17;19.65;;;16.07;;
73678;SDS011;61978;52.742;16.962;2022-12-11T08:53:45;18.42;;;15.75;;
73678;SDS011;61978;52.742;16.962;2022-12-11T08:56:13;25.05;;;17.67;;
73678;SDS011;61978;52.742;16.962;2022-12-11T08:58:42;22.05;;;16.82;;
73678;SDS011;61978;52.742;16.962;2022-12-11T09:01:14;19.95;;;14.78;;
73678;SDS011;61978;52.742;16.962;2022-12-11T09:03:44;20.82;;;17.27;;
73678;SDS011;61978;52.742;16.962;2022-12-11T09:06:12;23.42;;;18.27;;
73678;SDS011;61978;52.742;16.962;2022-12-11T09:08:42;22.15;;;15.80;;
73678;SDS011;61978;52.742;16.962;2022-12-11T09:11:14;23.70;;;19.17;;
73678;SDS011;61978;52.742;16.962;2022-12-11T09:13:39;24.23;;;18.67;;
73678;SDS011;61978;52.742;16.962;2022-12-11T09:16:08;21.23;;;17.95;;
73678;SDS011;61978;52.742;16.962;2022-12-11T09:18:36;22.05;;;18.95;;
73678;SDS011;61978;52.742;16.962;2022-12-11T09:21:06;23.35;;;18.17;;
73678;SDS011;61978;52.742;16.962;2022-12-11T09:23:34;32.90;;;27.30;;
73678;SDS011;61978;52.742;16.962;2022-12-11T09:26:03;32.93;;;27.27;;
73678;SDS011;61978;52.742;16.962;2022-12-11T09:28:31;21.42;;;18.90;;
73678;SDS011;61978;52.742;16.962;2022-12-11T09:30:59;26.48;;;20.45;;
73678;SDS011;61978;52.742;16.962;2022-12-11T09:33:26;24.65;;;19.27;;
73678;SDS011;61978;52.742;16.962;2022-12-11T09:36:00;34.25;;;25.77;;
73678;SDS011;61978;52.742;16.962;2022-12-11T09:38:26;21.70;;;18.55;;
73678;SDS011;61978;52.742;16.962;2022-12-11T09:40:53;28.38;;;15.60;;
73678;SDS011;61978;52.742;16.962;2022-12-11T09:43:37;20.80;;;11.78;;
73678;SDS011;61978;52.742;16.962;2022-12-11T09:46:13;16.90;;;11.12;;
73678;SDS011;61978;52.742;16.962;2022-12-11T09:48:38;22.48;;;14.70;;
73678;SDS011;61978;52.742;16.962;2022-12-11T09:51:17;21.25;;;12.18;;
73678;SDS011;61978;52.742;16.962;2022-12-11T09:53:46;17.07;;;10.85;;
73678;SDS011;61978;52.742;16.962;2022-12-11T10:02:34;17.35;;;12.65;;
73678;SDS011;61978;52.742;16.962;2022-12-11T10:07:19;28.70;;;24.25;;
73678;SDS011;61978;52.742;16.962;2022-12-11T10:10:24;30.12;;;23.45;;
73678;SDS011;61978;52.742;16.962;2022-12-11T10:15:51;20.57;;;15.03;;
73678;SDS011;61978;52.742;16.962;2022-12-11T10:18:37;19.27;;;15.65;;
73678;SDS011;61978;52.742;16.962;2022-12-11T10:21:05;19.45;;;15.38;;
73678;SDS011;61978;52.742;16.962;2022-12-11T10:23:38;29.20;;;22.62;;
73678;SDS011;61978;52.742;16.962;2022-12-11T10:26:10;23.18;;;18.30;;
73678;SDS011;61978;52.742;16.962;2022-12-11T10:28:38;68.55;;;38.53;;
73678;SDS011;61978;52.742;16.962;2022-12-11T10:34:12;24.30;;;19.80;;
73678;SDS011;61978;52.742;16.962;2022-12-11T10:36:47;54.50;;;29.77;;
73678;SDS011;61978;52.742;16.962;2022-12-11T10:39:18;35.92;;;24.35;;
73678;SDS011;61978;52.742;16.962;2022-12-11T10:41:47;42.62;;;30.43;;
73678;SDS011;61978;52.742;16.962;2022-12-11T10:44:17;19.57;;;14.95;;
73678;SDS011;61978;52.742;16.962;2022-12-11T10:46:59;19.03;;;13.97;;
73678;SDS011;61978;52.742;16.962;2022-12-11T10:49:35;19.62;;;15.65;;
73678;SDS011;61978;52.742;16.962;2022-12-11T10:52:09;17.90;;;16.00;;
73678;SDS011;61978;52.742;16.962;2022-12-11T10:54:52;21.77;;;16.87;;
73678;SDS011;61978;52.742;16.962;2022-12-11T10:57:30;16.02;;;11.18;;
73678;SDS011;61978;52.742;16.962;2022-12-11T11:00:05;28.35;;;22.45;;
73678;SDS011;61978;52.742;16.962;2022-12-11T11:02:36;18.65;;;15.30;;
73678;SDS011;61978;52.742;16.962;2022-12-11T11:05:12;21.70;;;16.17;;
73678;SDS011;61978;52.742;16.962;2022-12-11T11:07:44;20.32;;;14.45;;
73678;SDS011;61978;52.742;16.962;2022-12-11T11:12:42;17.50;;;12.37;;
73678;SDS011;61978;52.742;16.962;2022-12-11T11:17:42;35.28;;;20.30;;
73678;SDS011;61978;52.742;16.962;2022-12-11T11:20:20;22.48;;;16.17;;
73678;SDS011;61978;52.742;16.962;2022-12-11T11:22:56;15.32;;;11.90;;
73678;SDS011;61978;52.742;16.962;2022-12-11T11:25:32;13.48;;;10.20;;
73678;SDS011;61978;52.742;16.962;2022-12-11T11:28:00;26.93;;;18.40;;
73678;SDS011;61978;52.742;16.962;2022-12-11T11:30:29;30.80;;;18.60;;
73678;SDS011;61978;52.742;16.962;2022-12-11T11:33:01;27.58;;;22.52;;
73678;SDS011;61978;52.742;16.962;2022-12-11T11:35:49;190.30;;;75.55;;
73678;SDS011;61978;52.742;16.962;2022-12-11T11:38:37;34.63;;;18.70;;
73678;SDS011;61978;52.742;16.962;2022-12-11T11:43:54;24.43;;;20.92;;
73678;SDS011;61978;52.742;16.962;2022-12-11T11:46:32;16.52;;;10.08;;
73678;SDS011;61978;52.742;16.962;2022-12-11T11:51:46;28.85;;;13.75;;
73678;SDS011;61978;52.742;16.962;2022-12-11T11:55:12;16.07;;;13.13;;
73678;SDS011;61978;52.742;16.962;2022-12-11T11:57:04;20.23;;;12.43;;
73678;SDS011;61978;52.742;16.962;2022-12-11T11:59:35;12.90;;;9.53;;
73678;SDS011;61978;52.742;16.962;2022-12-11T12:02:15;15.30;;;10.00;;
73678;SDS011;61978;52.742;16.962;2022-12-11T12:13:00;23.50;;;10.00;;
73678;SDS011;61978;52.742;16.962;2022-12-11T12:15:35;16.80;;;13.53;;
73678;SDS011;61978;52.742;16.962;2022-12-11T12:23:46;13.68;;;10.98;;
73678;SDS011;61978;52.742;16.962;2022-12-11T12:26:26;16.32;;;11.15;;
73678;SDS011;61978;52.742;16.962;2022-12-11T12:34:33;25.25;;;18.35;;
73678;SDS011;61978;52.742;16.962;2022-12-11T12:37:09;23.75;;;16.65;;
73678;SDS011;61978;52.742;16.962;2022-12-11T12:39:41;26.73;;;17.92;;
73678;SDS011;61978;52.742;16.962;2022-12-11T12:47:42;18.45;;;14.33;;
73678;SDS011;61978;52.742;16.962;2022-12-11T12:50:18;20.82;;;14.47;;
73678;SDS011;61978;52.742;16.962;2022-12-11T12:52:41;19.60;;;15.05;;
73678;SDS011;61978;52.742;16.962;2022-12-11T12:57:49;20.68;;;16.05;;
73678;SDS011;61978;52.742;16.962;2022-12-11T13:00:28;16.35;;;12.13;;
73678;SDS011;61978;52.742;16.962;2022-12-11T13:02:56;15.20;;;12.13;;
73678;SDS011;61978;52.742;16.962;2022-12-11T13:05:25;16.93;;;13.35;;
73678;SDS011;61978;52.742;16.962;2022-12-11T13:07:58;16.63;;;12.70;;
73678;SDS011;61978;52.742;16.962;2022-12-11T13:10:29;15.72;;;12.85;;
73678;SDS011;61978;52.742;16.962;2022-12-11T13:12:57;15.93;;;12.47;;
73678;SDS011;61978;52.742;16.962;2022-12-11T13:15:31;16.00;;;11.48;;
73678;SDS011;61978;52.742;16.962;2022-12-11T13:18:28;17.52;;;12.78;;
73678;SDS011;61978;52.742;16.962;2022-12-11T13:20:52;15.10;;;12.33;;
73678;SDS011;61978;52.742;16.962;2022-12-11T13:23:25;13.00;;;10.18;;
73678;SDS011;61978;52.742;16.962;2022-12-11T13:25:55;13.38;;;11.18;;
73678;SDS011;61978;52.742;16.962;2022-12-11T13:28:32;14.43;;;10.60;;
73678;SDS011;61978;52.742;16.962;2022-12-11T13:30:58;15.70;;;11.12;;
73678;SDS011;61978;52.742;16.962;2022-12-11T13:33:42;20.85;;;16.62;;
73678;SDS011;61978;52.742;16.962;2022-12-11T13:38:49;38.40;;;25.17;;
73678;SDS011;61978;52.742;16.962;2022-12-11T13:41:21;26.75;;;18.65;;
73678;SDS011;61978;52.742;16.962;2022-12-11T13:43:48;42.40;;;26.93;;
73678;SDS011;61978;52.742;16.962;2022-12-11T13:46:21;55.20;;;34.63;;
73678;SDS011;61978;52.742;16.962;2022-12-11T13:48:55;46.20;;;31.33;;
73678;SDS011;61978;52.742;16.962;2022-12-11T13:51:26;34.85;;;26.87;;
73678;SDS011;61978;52.742;16.962;2022-12-11T13:54:14;22.20;;;15.72;;
73678;SDS011;61978;52.742;16.962;2022-12-11T13:56:55;23.15;;;17.05;;
73678;SDS011;61978;52.742;16.962;2022-12-11T13:59:26;36.00;;;24.90;;
73678;SDS011;61978;52.742;16.962;2022-12-11T14:04:58;15.50;;;13.15;;
73678;SDS011;61978;52.742;16.962;2022-12-11T14:07:28;19.95;;;15.48;;
73678;SDS011;61978;52.742;16.962;2022-12-11T14:10:01;18.40;;;14.25;;
73678;SDS011;61978;52.742;16.962;2022-12-11T14:12:34;19.02;;;14.38;;
73678;SDS011;61978;52.742;16.962;2022-12-11T14:15:02;24.75;;;19.07;;
73678;SDS011;61978;52.742;16.962;2022-12-11T14:17:30;30.40;;;19.95;;
73678;SDS011;61978;52.742;16.962;2022-12-11T14:20:00;31.87;;;22.85;;
73678;SDS011;61978;52.742;16.962;2022-12-11T14:22:31;28.62;;;22.13;;
73678;SDS011;61978;52.742;16.962;2022-12-11T14:24:59;16.77;;;12.82;;
73678;SDS011;61978;52.742;16.962;2022-12-11T14:27:28;17.95;;;13.48;;
73678;SDS011;61978;52.742;16.962;2022-12-11T14:29:55;19.40;;;16.05;;
73678;SDS011;61978;52.742;16.962;2022-12-11T14:32:32;29.75;;;21.05;;
73678;SDS011;61978;52.742;16.962;2022-12-11T14:34:52;45.95;;;35.78;;
73678;SDS011;61978;52.742;16.962;2022-12-11T14:37:20;23.10;;;16.35;;
73678;SDS011;61978;52.742;16.962;2022-12-11T14:42:33;22.82;;;17.82;;
73678;SDS011;61978;52.742;16.962;2022-12-11T14:45:11;21.82;;;16.00;;
73678;SDS011;61978;52.742;16.962;2022-12-11T14:47:39;19.87;;;13.90;;
73678;SDS011;61978;52.742;16.962;2022-12-11T14:50:05;20.40;;;16.50;;
73678;SDS011;61978;52.742;16.962;2022-12-11T14:52:47;23.42;;;18.42;;
73678;SDS011;61978;52.742;16.962;2022-12-11T14:55:24;18.82;;;14.33;;
73678;SDS011;61978;52.742;16.962;2022-12-11T14:57:55;18.23;;;13.70;;
73678;SDS011;61978;52.742;16.962;2022-12-11T15:00:24;21.45;;;15.28;;
73678;SDS011;61978;52.742;16.962;2022-12-11T15:02:57;17.80;;;13.65;;
73678;SDS011;61978;52.742;16.962;2022-12-11T15:05:28;79.90;;;51.80;;
73678;SDS011;61978;52.742;16.962;2022-12-11T15:07:59;75.00;;;49.70;;
73678;SDS011;61978;52.742;16.962;2022-12-11T15:10:35;46.48;;;31.37;;
73678;SDS011;61978;52.742;16.962;2022-12-11T15:13:06;19.52;;;14.43;;
73678;SDS011;61978;52.742;16.962;2022-12-11T15:15:42;23.05;;;16.23;;
73678;SDS011;61978;52.742;16.962;2022-12-11T15:18:20;38.78;;;30.05;;
73678;SDS011;61978;52.742;16.962;2022-12-11T15:20:54;44.70;;;34.13;;
73678;SDS011;61978;52.742;16.962;2022-12-11T15:23:23;32.40;;;24.25;;
73678;SDS011;61978;52.742;16.962;2022-12-11T15:25:55;28.67;;;21.00;;
73678;SDS011;61978;52.742;16.962;2022-12-11T15:28:28;44.83;;;33.23;;
73678;SDS011;61978;52.742;16.962;2022-12-11T15:31:00;39.92;;;30.60;;
73678;SDS011;61978;52.742;16.962;2022-12-11T15:33:29;34.33;;;24.67;;
73678;SDS011;61978;52.742;16.962;2022-12-11T15:38:31;24.82;;;18.70;;
73678;SDS011;61978;52.742;16.962;2022-12-11T15:41:01;29.02;;;20.92;;
73678;SDS011;61978;52.742;16.962;2022-12-11T15:43:29;27.87;;;23.50;;
73678;SDS011;61978;52.742;16.962;2022-12-11T15:46:00;30.77;;;24.20;;
73678;SDS011;61978;52.742;16.962;2022-12-11T15:48:28;27.98;;;20.95;;
73678;SDS011;61978;52.742;16.962;2022-12-11T15:50:55;27.82;;;20.12;;
73678;SDS011;61978;52.742;16.962;2022-12-11T15:54:06;24.03;;;18.83;;
73678;SDS011;61978;52.742;16.962;2022-12-11T15:56:32;24.15;;;18.45;;
73678;SDS011;61978;52.742;16.962;2022-12-11T15:59:02;20.90;;;15.32;;
73678;SDS011;61978;52.742;16.962;2022-12-11T16:01:31;21.00;;;15.65;;
73678;SDS011;61978;52.742;16.962;2022-12-11T16:04:00;20.92;;;16.37;;
73678;SDS011;61978;52.742;16.962;2022-12-11T16:06:27;21.87;;;16.67;;
73678;SDS011;61978;52.742;16.962;2022-12-11T16:08:54;18.12;;;13.55;;
73678;SDS011;61978;52.742;16.962;2022-12-11T16:11:20;19.32;;;14.18;;
73678;SDS011;61978;52.742;16.962;2022-12-11T16:13:48;19.10;;;13.00;;
73678;SDS011;61978;52.742;16.962;2022-12-11T16:16:15;20.92;;;15.80;;
73678;SDS011;61978;52.742;16.962;2022-12-11T16:18:46;17.07;;;13.13;;
73678;SDS011;61978;52.742;16.962;2022-12-11T16:21:12;17.25;;;13.18;;
73678;SDS011;61978;52.742;16.962;2022-12-11T16:23:40;20.15;;;15.83;;
73678;SDS011;61978;52.742;16.962;2022-12-11T16:26:08;20.48;;;15.80;;
73678;SDS011;61978;52.742;16.962;2022-12-11T16:28:35;172.90;;;123.70;;
73678;SDS011;61978;52.742;16.962;2022-12-11T16:31:02;185.95;;;101.67;;
73678;SDS011;61978;52.742;16.962;2022-12-11T16:33:31;156.95;;;79.67;;
73678;SDS011;61978;52.742;16.962;2022-12-11T16:35:59;168.65;;;93.17;;
73678;SDS011;61978;52.742;16.962;2022-12-11T16:38:27;112.47;;;64.85;;
73678;SDS011;61978;52.742;16.962;2022-12-11T16:41:00;123.82;;;79.32;;
73678;SDS011;61978;52.742;16.962;2022-12-11T16:45:54;22.42;;;17.20;;
73678;SDS011;61978;52.742;16.962;2022-12-11T16:48:21;37.00;;;29.25;;
73678;SDS011;61978;52.742;16.962;2022-12-11T16:50:48;35.65;;;27.22;;
73678;SDS011;61978;52.742;16.962;2022-12-11T16:53:16;23.62;;;18.85;;
73678;SDS011;61978;52.742;16.962;2022-12-11T16:55:44;38.50;;;29.12;;
73678;SDS011;61978;52.742;16.962;2022-12-11T16:58:10;66.85;;;45.63;;
73678;SDS011;61978;52.742;16.962;2022-12-11T17:00:39;33.00;;;24.43;;
73678;SDS011;61978;52.742;16.962;2022-12-11T17:03:05;24.45;;;17.90;;
73678;SDS011;61978;52.742;16.962;2022-12-11T17:05:32;26.35;;;20.37;;
73678;SDS011;61978;52.742;16.962;2022-12-11T17:07:59;23.85;;;18.40;;
73678;SDS011;61978;52.742;16.962;2022-12-11T17:10:26;30.45;;;22.42;;
73678;SDS011;61978;52.742;16.962;2022-12-11T17:12:52;18.60;;;13.38;;
73678;SDS011;61978;52.742;16.962;2022-12-11T17:15:19;20.02;;;13.40;;
73678;SDS011;61978;52.742;16.962;2022-12-11T17:17:47;18.40;;;13.58;;
73678;SDS011;61978;52.742;16.962;2022-12-11T17:20:14;14.23;;;10.88;;
73678;SDS011;61978;52.742;16.962;2022-12-11T17:22:42;16.15;;;11.57;;
73678;SDS011;61978;52.742;16.962;2022-12-11T17:25:10;17.00;;;11.60;;
73678;SDS011;61978;52.742;16.962;2022-12-11T17:27:39;16.65;;;12.25;;
73678;SDS011;61978;52.742;16.962;2022-12-11T17:30:07;16.77;;;13.03;;
73678;SDS011;61978;52.742;16.962;2022-12-11T17:32:35;18.10;;;13.78;;
73678;SDS011;61978;52.742;16.962;2022-12-11T17:35:02;17.57;;;12.25;;
73678;SDS011;61978;52.742;16.962;2022-12-11T17:37:30;13.75;;;11.28;;
73678;SDS011;61978;52.742;16.962;2022-12-11T17:39:57;14.35;;;12.45;;
73678;SDS011;61978;52.742;16.962;2022-12-11T17:42:23;14.25;;;12.10;;
73678;SDS011;61978;52.742;16.962;2022-12-11T17:44:51;20.23;;;12.93;;
73678;SDS011;61978;52.742;16.962;2022-12-11T17:47:18;19.12;;;14.78;;
73678;SDS011;61978;52.742;16.962;2022-12-11T17:49:45;20.77;;;15.88;;
73678;SDS011;61978;52.742;16.962;2022-12-11T17:52:11;18.95;;;13.70;;
73678;SDS011;61978;52.742;16.962;2022-12-11T17:54:38;18.40;;;13.85;;
73678;SDS011;61978;52.742;16.962;2022-12-11T17:57:06;18.70;;;14.55;;
73678;SDS011;61978;52.742;16.962;2022-12-11T17:59:32;19.07;;;14.83;;
73678;SDS011;61978;52.742;16.962;2022-12-11T18:01:59;18.27;;;14.03;;
73678;SDS011;61978;52.742;16.962;2022-12-11T18:04:25;18.60;;;14.65;;
73678;SDS011;61978;52.742;16.962;2022-12-11T18:06:54;18.85;;;14.40;;
73678;SDS011;61978;52.742;16.962;2022-12-11T18:09:22;28.77;;;21.00;;
73678;SDS011;61978;52.742;16.962;2022-12-11T18:11:48;33.38;;;26.07;;
73678;SDS011;61978;52.742;16.962;2022-12-11T18:14:16;26.60;;;19.35;;
73678;SDS011;61978;52.742;16.962;2022-12-11T18:16:43;23.20;;;18.27;;
73678;SDS011;61978;52.742;16.962;2022-12-11T18:19:11;21.62;;;15.80;;